sensor_id;sensor_type;location;lat;lon;timestamp;P1;durP1;ratioP1;P2;durP2;ratioP2
54259;SDS011;40172;53.022;7.012;2023-09-19T00:01:38;8.00;;;2.13;;
54259;SDS011;40172;53.022;7.012;2023-09-19T00:04:09;10.88;;;2.30;;
54259;SDS011;40172;53.022;7.012;2023-09-19T00:06:35;10.70;;;2.13;;
54259;SDS011;40172;53.022;7.012;2023-09-19T00:09:01;9.77;;;2.22;;
54259;SDS011;40172;53.022;7.012;2023-09-19T00:11:27;11.38;;;2.53;;
54259;SDS011;40172;53.022;7.012;2023-09-19T00:13:54;8.95;;;2.10;;
54259;SDS011;40172;53.022;7.012;2023-09-19T00:16:20;10.45;;;2.08;;
54259;SDS011;40172;53.022;7.012;2023-09-19T00:18:45;11.15;;;2.50;;
54259;SDS011;40172;53.022;7.012;2023-09-19T00:21:11;9.10;;;2.33;;
54259;SDS011;40172;53.022;7.012;2023-09-19T00:23:38;13.82;;;2.45;;
54259;SDS011;40172;53.022;7.012;2023-09-19T00:26:06;10.35;;;2.38;;
54259;SDS011;40172;53.022;7.012;2023-09-19T00:28:31;14.68;;;2.78;;
54259;SDS011;40172;53.022;7.012;2023-09-19T00:30:57;13.98;;;2.25;;
54259;SDS011;40172;53.022;7.012;2023-09-19T00:33:26;14.35;;;2.60;;
54259;SDS011;40172;53.022;7.012;2023-09-19T00:35:54;10.23;;;2.83;;
54259;SDS011;40172;53.022;7.012;2023-09-19T00:38:21;14.20;;;2.65;;
54259;SDS011;40172;53.022;7.012;2023-09-19T00:40:52;13.25;;;2.38;;
54259;SDS011;40172;53.022;7.012;2023-09-19T00:43:18;11.30;;;2.28;;
54259;SDS011;40172;53.022;7.012;2023-09-19T00:45:49;13.38;;;2.53;;
54259;SDS011;40172;53.022;7.012;2023-09-19T00:48:16;11.20;;;2.40;;
54259;SDS011;40172;53.022;7.012;2023-09-19T00:50:43;13.10;;;2.95;;
54259;SDS011;40172;53.022;7.012;2023-09-19T00:53:13;11.25;;;2.60;;
54259;SDS011;40172;53.022;7.012;2023-09-19T00:55:40;8.60;;;2.20;;
54259;SDS011;40172;53.022;7.012;2023-09-19T00:58:07;17.80;;;3.00;;
54259;SDS011;40172;53.022;7.012;2023-09-19T01:00:34;12.35;;;2.42;;
54259;SDS011;40172;53.022;7.012;2023-09-19T01:03:00;12.13;;;2.50;;
54259;SDS011;40172;53.022;7.012;2023-09-19T01:05:28;13.73;;;2.40;;
54259;SDS011;40172;53.022;7.012;2023-09-19T01:07:57;15.25;;;2.60;;
54259;SDS011;40172;53.022;7.012;2023-09-19T01:10:23;12.05;;;2.63;;
54259;SDS011;40172;53.022;7.012;2023-09-19T01:15:35;12.00;;;2.30;;
54259;SDS011;40172;53.022;7.012;2023-09-19T01:23:39;14.10;;;2.92;;
54259;SDS011;40172;53.022;7.012;2023-09-19T01:32:04;11.82;;;2.67;;
54259;SDS011;40172;53.022;7.012;2023-09-19T01:34:47;12.63;;;2.75;;
54259;SDS011;40172;53.022;7.012;2023-09-19T01:37:15;12.88;;;2.63;;
54259;SDS011;40172;53.022;7.012;2023-09-19T01:39:46;13.20;;;2.40;;
54259;SDS011;40172;53.022;7.012;2023-09-19T01:51:11;15.20;;;3.03;;
54259;SDS011;40172;53.022;7.012;2023-09-19T01:53:55;12.38;;;2.40;;
54259;SDS011;40172;53.022;7.012;2023-09-19T01:56:29;14.00;;;2.60;;
54259;SDS011;40172;53.022;7.012;2023-09-19T01:59:07;12.75;;;2.75;;
54259;SDS011;40172;53.022;7.012;2023-09-19T02:01:38;14.43;;;3.25;;
54259;SDS011;40172;53.022;7.012;2023-09-19T02:04:06;15.23;;;2.70;;
54259;SDS011;40172;53.022;7.012;2023-09-19T02:06:32;14.20;;;2.67;;
54259;SDS011;40172;53.022;7.012;2023-09-19T02:08:59;11.07;;;2.80;;
54259;SDS011;40172;53.022;7.012;2023-09-19T02:11:25;13.55;;;2.60;;
54259;SDS011;40172;53.022;7.012;2023-09-19T02:13:51;16.73;;;3.03;;
54259;SDS011;40172;53.022;7.012;2023-09-19T02:16:19;16.85;;;2.90;;
54259;SDS011;40172;53.022;7.012;2023-09-19T02:18:46;19.80;;;3.45;;
54259;SDS011;40172;53.022;7.012;2023-09-19T02:21:15;16.45;;;3.15;;
54259;SDS011;40172;53.022;7.012;2023-09-19T02:23:42;16.77;;;2.92;;
54259;SDS011;40172;53.022;7.012;2023-09-19T02:26:08;14.18;;;2.80;;
54259;SDS011;40172;53.022;7.012;2023-09-19T02:28:34;16.95;;;3.40;;
54259;SDS011;40172;53.022;7.012;2023-09-19T02:31:00;18.80;;;3.30;;
54259;SDS011;40172;53.022;7.012;2023-09-19T02:33:26;21.50;;;3.25;;
54259;SDS011;40172;53.022;7.012;2023-09-19T02:35:57;19.55;;;3.30;;
54259;SDS011;40172;53.022;7.012;2023-09-19T02:38:23;16.55;;;3.05;;
54259;SDS011;40172;53.022;7.012;2023-09-19T02:40:50;16.58;;;3.35;;
54259;SDS011;40172;53.022;7.012;2023-09-19T02:43:20;18.13;;;3.13;;
54259;SDS011;40172;53.022;7.012;2023-09-19T02:45:46;16.10;;;3.10;;
54259;SDS011;40172;53.022;7.012;2023-09-19T02:48:12;15.55;;;2.80;;
54259;SDS011;40172;53.022;7.012;2023-09-19T02:50:37;15.38;;;3.20;;
54259;SDS011;40172;53.022;7.012;2023-09-19T02:53:05;16.38;;;3.22;;
54259;SDS011;40172;53.022;7.012;2023-09-19T02:55:31;16.17;;;3.22;;
54259;SDS011;40172;53.022;7.012;2023-09-19T02:57:57;16.35;;;3.30;;
54259;SDS011;40172;53.022;7.012;2023-09-19T03:00:23;13.10;;;2.67;;
54259;SDS011;40172;53.022;7.012;2023-09-19T03:02:55;15.80;;;3.25;;
54259;SDS011;40172;53.022;7.012;2023-09-19T03:05:22;17.00;;;3.17;;
54259;SDS011;40172;53.022;7.012;2023-09-19T03:07:48;14.98;;;3.30;;
54259;SDS011;40172;53.022;7.012;2023-09-19T03:10:16;15.70;;;3.10;;
54259;SDS011;40172;53.022;7.012;2023-09-19T03:12:43;16.25;;;3.50;;
54259;SDS011;40172;53.022;7.012;2023-09-19T03:15:09;20.77;;;3.53;;
54259;SDS011;40172;53.022;7.012;2023-09-19T03:17:35;17.88;;;3.20;;
54259;SDS011;40172;53.022;7.012;2023-09-19T03:20:02;15.68;;;3.13;;
54259;SDS011;40172;53.022;7.012;2023-09-19T03:22:29;18.92;;;3.20;;
54259;SDS011;40172;53.022;7.012;2023-09-19T03:24:55;14.27;;;3.45;;
54259;SDS011;40172;53.022;7.012;2023-09-19T03:27:20;18.42;;;3.42;;
54259;SDS011;40172;53.022;7.012;2023-09-19T03:29:46;12.55;;;3.10;;
54259;SDS011;40172;53.022;7.012;2023-09-19T03:32:12;16.85;;;3.10;;
54259;SDS011;40172;53.022;7.012;2023-09-19T03:34:38;13.07;;;2.72;;
54259;SDS011;40172;53.022;7.012;2023-09-19T03:37:08;12.38;;;3.05;;
54259;SDS011;40172;53.022;7.012;2023-09-19T03:39:34;13.18;;;3.30;;
54259;SDS011;40172;53.022;7.012;2023-09-19T03:42:01;12.73;;;3.00;;
54259;SDS011;40172;53.022;7.012;2023-09-19T03:44:32;13.13;;;3.35;;
54259;SDS011;40172;53.022;7.012;2023-09-19T03:46:57;14.68;;;2.92;;
54259;SDS011;40172;53.022;7.012;2023-09-19T03:49:23;14.98;;;3.22;;
54259;SDS011;40172;53.022;7.012;2023-09-19T03:51:48;11.60;;;2.83;;
54259;SDS011;40172;53.022;7.012;2023-09-19T03:54:14;16.02;;;3.33;;
54259;SDS011;40172;53.022;7.012;2023-09-19T03:56:40;13.57;;;2.75;;
54259;SDS011;40172;53.022;7.012;2023-09-19T03:59:05;14.13;;;3.13;;
54259;SDS011;40172;53.022;7.012;2023-09-19T04:01:31;13.10;;;2.90;;
54259;SDS011;40172;53.022;7.012;2023-09-19T04:03:58;13.48;;;3.00;;
54259;SDS011;40172;53.022;7.012;2023-09-19T04:06:33;14.40;;;2.97;;
54259;SDS011;40172;53.022;7.012;2023-09-19T04:09:02;14.45;;;2.75;;
54259;SDS011;40172;53.022;7.012;2023-09-19T04:11:28;12.73;;;2.80;;
54259;SDS011;40172;53.022;7.012;2023-09-19T04:13:58;13.02;;;3.15;;
54259;SDS011;40172;53.022;7.012;2023-09-19T04:16:24;9.68;;;2.58;;
54259;SDS011;40172;53.022;7.012;2023-09-19T04:18:50;11.15;;;2.97;;
54259;SDS011;40172;53.022;7.012;2023-09-19T04:21:15;13.15;;;2.78;;
54259;SDS011;40172;53.022;7.012;2023-09-19T04:23:41;12.52;;;2.67;;
54259;SDS011;40172;53.022;7.012;2023-09-19T04:26:07;12.30;;;2.78;;
54259;SDS011;40172;53.022;7.012;2023-09-19T04:28:33;11.73;;;2.95;;
54259;SDS011;40172;53.022;7.012;2023-09-19T04:30:59;13.68;;;3.20;;
54259;SDS011;40172;53.022;7.012;2023-09-19T04:33:25;13.25;;;2.80;;
54259;SDS011;40172;53.022;7.012;2023-09-19T04:35:52;13.25;;;2.92;;
54259;SDS011;40172;53.022;7.012;2023-09-19T04:38:18;13.63;;;3.05;;
54259;SDS011;40172;53.022;7.012;2023-09-19T04:40:44;9.15;;;2.50;;
54259;SDS011;40172;53.022;7.012;2023-09-19T04:43:10;14.80;;;3.28;;
54259;SDS011;40172;53.022;7.012;2023-09-19T04:45:36;11.95;;;2.78;;
54259;SDS011;40172;53.022;7.012;2023-09-19T04:48:04;13.27;;;2.83;;
54259;SDS011;40172;53.022;7.012;2023-09-19T04:50:32;13.20;;;3.22;;
54259;SDS011;40172;53.022;7.012;2023-09-19T04:52:59;15.05;;;3.55;;
54259;SDS011;40172;53.022;7.012;2023-09-19T04:55:25;14.75;;;2.97;;
54259;SDS011;40172;53.022;7.012;2023-09-19T04:57:51;13.55;;;3.70;;
54259;SDS011;40172;53.022;7.012;2023-09-19T05:00:18;17.48;;;3.55;;
54259;SDS011;40172;53.022;7.012;2023-09-19T05:02:49;12.02;;;3.63;;
54259;SDS011;40172;53.022;7.012;2023-09-19T05:05:17;14.27;;;3.28;;
54259;SDS011;40172;53.022;7.012;2023-09-19T05:07:44;13.40;;;3.08;;
54259;SDS011;40172;53.022;7.012;2023-09-19T05:10:10;17.77;;;3.35;;
54259;SDS011;40172;53.022;7.012;2023-09-19T05:12:37;12.77;;;3.50;;
54259;SDS011;40172;53.022;7.012;2023-09-19T05:15:03;12.55;;;2.97;;
54259;SDS011;40172;53.022;7.012;2023-09-19T05:17:29;16.65;;;3.75;;
54259;SDS011;40172;53.022;7.012;2023-09-19T05:19:56;16.65;;;3.25;;
54259;SDS011;40172;53.022;7.012;2023-09-19T05:22:23;16.42;;;3.70;;
54259;SDS011;40172;53.022;7.012;2023-09-19T05:24:49;15.40;;;3.15;;
54259;SDS011;40172;53.022;7.012;2023-09-19T05:27:16;19.45;;;4.00;;
54259;SDS011;40172;53.022;7.012;2023-09-19T05:29:42;5.90;;;1.05;;
54259;SDS011;40172;53.022;7.012;2023-09-19T05:32:09;1.55;;;0.68;;
54259;SDS011;40172;53.022;7.012;2023-09-19T05:34:35;15.73;;;3.45;;
54259;SDS011;40172;53.022;7.012;2023-09-19T05:37:01;16.83;;;3.35;;
54259;SDS011;40172;53.022;7.012;2023-09-19T05:39:27;18.88;;;3.63;;
54259;SDS011;40172;53.022;7.012;2023-09-19T05:41:53;19.42;;;4.07;;
54259;SDS011;40172;53.022;7.012;2023-09-19T05:44:18;12.50;;;3.78;;
54259;SDS011;40172;53.022;7.012;2023-09-19T05:46:44;18.83;;;3.50;;
54259;SDS011;40172;53.022;7.012;2023-09-19T05:49:13;21.13;;;3.45;;
54259;SDS011;40172;53.022;7.012;2023-09-19T05:51:39;17.92;;;3.40;;
54259;SDS011;40172;53.022;7.012;2023-09-19T05:54:05;16.15;;;3.40;;
54259;SDS011;40172;53.022;7.012;2023-09-19T05:56:30;15.63;;;3.05;;
54259;SDS011;40172;53.022;7.012;2023-09-19T05:58:56;22.23;;;3.35;;
54259;SDS011;40172;53.022;7.012;2023-09-19T06:01:22;16.40;;;4.13;;
54259;SDS011;40172;53.022;7.012;2023-09-19T06:03:47;18.70;;;3.03;;
54259;SDS011;40172;53.022;7.012;2023-09-19T06:06:13;22.38;;;3.80;;
54259;SDS011;40172;53.022;7.012;2023-09-19T06:08:39;15.93;;;3.30;;
54259;SDS011;40172;53.022;7.012;2023-09-19T06:11:06;20.10;;;3.85;;
54259;SDS011;40172;53.022;7.012;2023-09-19T06:13:32;17.00;;;3.72;;
54259;SDS011;40172;53.022;7.012;2023-09-19T06:15:58;19.55;;;3.85;;
54259;SDS011;40172;53.022;7.012;2023-09-19T06:18:28;18.10;;;3.63;;
54259;SDS011;40172;53.022;7.012;2023-09-19T06:20:54;16.23;;;3.30;;
54259;SDS011;40172;53.022;7.012;2023-09-19T06:23:20;15.15;;;3.13;;
54259;SDS011;40172;53.022;7.012;2023-09-19T06:25:46;15.73;;;3.20;;
54259;SDS011;40172;53.022;7.012;2023-09-19T06:28:12;16.42;;;3.30;;
54259;SDS011;40172;53.022;7.012;2023-09-19T06:30:38;22.42;;;3.40;;
54259;SDS011;40172;53.022;7.012;2023-09-19T06:33:05;19.00;;;3.80;;
54259;SDS011;40172;53.022;7.012;2023-09-19T06:35:32;18.92;;;3.13;;
54259;SDS011;40172;53.022;7.012;2023-09-19T06:37:58;17.88;;;3.55;;
54259;SDS011;40172;53.022;7.012;2023-09-19T06:40:28;15.43;;;3.30;;
54259;SDS011;40172;53.022;7.012;2023-09-19T06:42:56;14.25;;;3.10;;
54259;SDS011;40172;53.022;7.012;2023-09-19T06:45:22;15.70;;;3.17;;
54259;SDS011;40172;53.022;7.012;2023-09-19T06:47:51;15.15;;;3.25;;
54259;SDS011;40172;53.022;7.012;2023-09-19T06:50:21;18.45;;;3.45;;
54259;SDS011;40172;53.022;7.012;2023-09-19T06:52:50;16.13;;;3.43;;
54259;SDS011;40172;53.022;7.012;2023-09-19T06:55:19;19.15;;;3.60;;
54259;SDS011;40172;53.022;7.012;2023-09-19T06:57:45;24.90;;;3.70;;
54259;SDS011;40172;53.022;7.012;2023-09-19T07:00:12;15.88;;;3.90;;
54259;SDS011;40172;53.022;7.012;2023-09-19T07:02:43;11.65;;;3.00;;
54259;SDS011;40172;53.022;7.012;2023-09-19T07:05:33;18.38;;;3.40;;
54259;SDS011;40172;53.022;7.012;2023-09-19T07:08:02;17.52;;;3.47;;
54259;SDS011;40172;53.022;7.012;2023-09-19T07:10:29;19.30;;;3.75;;
54259;SDS011;40172;53.022;7.012;2023-09-19T07:13:05;15.07;;;3.53;;
54259;SDS011;40172;53.022;7.012;2023-09-19T07:15:34;15.70;;;3.47;;
54259;SDS011;40172;53.022;7.012;2023-09-19T07:18:06;12.55;;;3.53;;
54259;SDS011;40172;53.022;7.012;2023-09-19T07:20:35;14.40;;;3.30;;
54259;SDS011;40172;53.022;7.012;2023-09-19T07:23:02;11.77;;;3.10;;
54259;SDS011;40172;53.022;7.012;2023-09-19T07:25:28;16.92;;;3.15;;
54259;SDS011;40172;53.022;7.012;2023-09-19T07:27:57;17.63;;;3.70;;
54259;SDS011;40172;53.022;7.012;2023-09-19T07:30:25;16.08;;;4.03;;
54259;SDS011;40172;53.022;7.012;2023-09-19T07:32:51;18.70;;;3.22;;
54259;SDS011;40172;53.022;7.012;2023-09-19T07:35:17;14.65;;;3.10;;
54259;SDS011;40172;53.022;7.012;2023-09-19T07:37:45;18.52;;;3.97;;
54259;SDS011;40172;53.022;7.012;2023-09-19T07:40:15;16.40;;;3.55;;
54259;SDS011;40172;53.022;7.012;2023-09-19T07:42:41;10.82;;;2.88;;
54259;SDS011;40172;53.022;7.012;2023-09-19T07:45:09;19.90;;;3.55;;
54259;SDS011;40172;53.022;7.012;2023-09-19T07:47:45;18.77;;;3.70;;
54259;SDS011;40172;53.022;7.012;2023-09-19T07:50:10;13.32;;;3.08;;
54259;SDS011;40172;53.022;7.012;2023-09-19T07:52:36;15.35;;;3.45;;
54259;SDS011;40172;53.022;7.012;2023-09-19T07:55:04;11.65;;;3.13;;
54259;SDS011;40172;53.022;7.012;2023-09-19T07:57:34;13.20;;;3.30;;
54259;SDS011;40172;53.022;7.012;2023-09-19T08:00:01;12.73;;;3.03;;
54259;SDS011;40172;53.022;7.012;2023-09-19T08:02:29;13.45;;;2.80;;
54259;SDS011;40172;53.022;7.012;2023-09-19T08:04:59;11.70;;;3.30;;
54259;SDS011;40172;53.022;7.012;2023-09-19T08:07:25;17.48;;;3.42;;
54259;SDS011;40172;53.022;7.012;2023-09-19T08:09:51;12.98;;;2.83;;
54259;SDS011;40172;53.022;7.012;2023-09-19T08:12:16;15.50;;;3.15;;
54259;SDS011;40172;53.022;7.012;2023-09-19T08:14:42;16.73;;;3.20;;
54259;SDS011;40172;53.022;7.012;2023-09-19T08:17:08;13.48;;;2.83;;
54259;SDS011;40172;53.022;7.012;2023-09-19T08:19:34;11.70;;;3.08;;
54259;SDS011;40172;53.022;7.012;2023-09-19T08:21:59;16.45;;;3.40;;
54259;SDS011;40172;53.022;7.012;2023-09-19T08:24:28;17.98;;;3.33;;
54259;SDS011;40172;53.022;7.012;2023-09-19T08:26:55;15.63;;;3.53;;
54259;SDS011;40172;53.022;7.012;2023-09-19T08:29:24;17.83;;;3.60;;
54259;SDS011;40172;53.022;7.012;2023-09-19T08:31:58;16.77;;;3.60;;
54259;SDS011;40172;53.022;7.012;2023-09-19T08:34:24;16.55;;;3.40;;
54259;SDS011;40172;53.022;7.012;2023-09-19T08:36:54;17.75;;;3.78;;
54259;SDS011;40172;53.022;7.012;2023-09-19T08:39:23;14.77;;;3.80;;
54259;SDS011;40172;53.022;7.012;2023-09-19T08:41:49;13.55;;;3.33;;
54259;SDS011;40172;53.022;7.012;2023-09-19T08:44:14;15.75;;;4.03;;
54259;SDS011;40172;53.022;7.012;2023-09-19T08:46:41;17.45;;;3.50;;
54259;SDS011;40172;53.022;7.012;2023-09-19T08:49:10;14.43;;;3.20;;
54259;SDS011;40172;53.022;7.012;2023-09-19T08:52:19;16.00;;;3.95;;
54259;SDS011;40172;53.022;7.012;2023-09-19T08:54:48;10.73;;;3.22;;
54259;SDS011;40172;53.022;7.012;2023-09-19T08:57:16;13.40;;;3.47;;
54259;SDS011;40172;53.022;7.012;2023-09-19T08:59:47;15.40;;;3.97;;
54259;SDS011;40172;53.022;7.012;2023-09-19T09:02:16;17.63;;;3.78;;
54259;SDS011;40172;53.022;7.012;2023-09-19T09:04:44;19.52;;;3.58;;
54259;SDS011;40172;53.022;7.012;2023-09-19T09:07:12;19.90;;;3.97;;
54259;SDS011;40172;53.022;7.012;2023-09-19T09:09:38;16.35;;;4.13;;
54259;SDS011;40172;53.022;7.012;2023-09-19T09:12:12;14.95;;;4.00;;
54259;SDS011;40172;53.022;7.012;2023-09-19T09:14:45;19.30;;;4.00;;
54259;SDS011;40172;53.022;7.012;2023-09-19T09:17:15;19.00;;;4.40;;
54259;SDS011;40172;53.022;7.012;2023-09-19T09:19:45;18.73;;;4.00;;
54259;SDS011;40172;53.022;7.012;2023-09-19T09:22:11;18.40;;;3.88;;
54259;SDS011;40172;53.022;7.012;2023-09-19T09:24:37;18.38;;;3.72;;
54259;SDS011;40172;53.022;7.012;2023-09-19T09:27:18;15.68;;;3.40;;
54259;SDS011;40172;53.022;7.012;2023-09-19T09:29:47;12.43;;;3.53;;
54259;SDS011;40172;53.022;7.012;2023-09-19T09:32:18;16.63;;;3.65;;
54259;SDS011;40172;53.022;7.012;2023-09-19T09:34:45;21.50;;;4.05;;
54259;SDS011;40172;53.022;7.012;2023-09-19T09:39:51;17.60;;;3.72;;
54259;SDS011;40172;53.022;7.012;2023-09-19T09:42:36;15.45;;;3.63;;
54259;SDS011;40172;53.022;7.012;2023-09-19T09:47:58;18.70;;;3.47;;
54259;SDS011;40172;53.022;7.012;2023-09-19T09:50:25;16.88;;;3.50;;
54259;SDS011;40172;53.022;7.012;2023-09-19T09:53:05;17.23;;;4.10;;
54259;SDS011;40172;53.022;7.012;2023-09-19T09:56:03;14.55;;;3.80;;
54259;SDS011;40172;53.022;7.012;2023-09-19T09:58:33;19.02;;;3.70;;
54259;SDS011;40172;53.022;7.012;2023-09-19T10:01:03;15.80;;;3.42;;
54259;SDS011;40172;53.022;7.012;2023-09-19T10:03:36;14.02;;;3.72;;
54259;SDS011;40172;53.022;7.012;2023-09-19T10:06:12;20.25;;;4.10;;
54259;SDS011;40172;53.022;7.012;2023-09-19T10:11:27;16.35;;;3.92;;
54259;SDS011;40172;53.022;7.012;2023-09-19T10:13:55;14.68;;;3.60;;
54259;SDS011;40172;53.022;7.012;2023-09-19T10:16:21;20.35;;;3.97;;
54259;SDS011;40172;53.022;7.012;2023-09-19T10:18:49;16.58;;;3.60;;
54259;SDS011;40172;53.022;7.012;2023-09-19T10:21:19;18.17;;;3.58;;
54259;SDS011;40172;53.022;7.012;2023-09-19T10:23:48;13.90;;;3.35;;
54259;SDS011;40172;53.022;7.012;2023-09-19T10:26:20;17.48;;;3.70;;
54259;SDS011;40172;53.022;7.012;2023-09-19T10:28:49;15.43;;;3.30;;
54259;SDS011;40172;53.022;7.012;2023-09-19T10:31:18;18.52;;;3.40;;
54259;SDS011;40172;53.022;7.012;2023-09-19T10:33:46;14.98;;;3.53;;
54259;SDS011;40172;53.022;7.012;2023-09-19T10:36:14;17.88;;;4.10;;
54259;SDS011;40172;53.022;7.012;2023-09-19T10:38:41;17.35;;;3.80;;
54259;SDS011;40172;53.022;7.012;2023-09-19T10:41:11;18.98;;;4.00;;
54259;SDS011;40172;53.022;7.012;2023-09-19T10:43:41;18.73;;;4.07;;
54259;SDS011;40172;53.022;7.012;2023-09-19T10:46:11;11.88;;;3.10;;
54259;SDS011;40172;53.022;7.012;2023-09-19T10:48:38;17.25;;;3.78;;
54259;SDS011;40172;53.022;7.012;2023-09-19T10:51:06;20.15;;;4.07;;
54259;SDS011;40172;53.022;7.012;2023-09-19T10:56:19;18.38;;;4.10;;
54259;SDS011;40172;53.022;7.012;2023-09-19T10:58:53;17.73;;;3.65;;
54259;SDS011;40172;53.022;7.012;2023-09-19T11:01:51;13.30;;;3.80;;
54259;SDS011;40172;53.022;7.012;2023-09-19T11:04:34;17.75;;;3.63;;
54259;SDS011;40172;53.022;7.012;2023-09-19T11:07:08;15.45;;;3.58;;
54259;SDS011;40172;53.022;7.012;2023-09-19T11:09:43;14.13;;;3.25;;
54259;SDS011;40172;53.022;7.012;2023-09-19T11:15:06;13.63;;;3.53;;
54259;SDS011;40172;53.022;7.012;2023-09-19T11:17:43;17.17;;;3.60;;
54259;SDS011;40172;53.022;7.012;2023-09-19T11:33:26;14.02;;;3.50;;
54259;SDS011;40172;53.022;7.012;2023-09-19T11:43:45;16.45;;;3.47;;
54259;SDS011;40172;53.022;7.012;2023-09-19T11:46:11;14.88;;;3.33;;
54259;SDS011;40172;53.022;7.012;2023-09-19T11:48:41;14.05;;;3.50;;
54259;SDS011;40172;53.022;7.012;2023-09-19T11:51:16;13.50;;;2.95;;
54259;SDS011;40172;53.022;7.012;2023-09-19T11:53:58;15.68;;;3.40;;
54259;SDS011;40172;53.022;7.012;2023-09-19T11:56:25;14.93;;;3.60;;
54259;SDS011;40172;53.022;7.012;2023-09-19T11:58:57;14.35;;;2.90;;
54259;SDS011;40172;53.022;7.012;2023-09-19T12:01:24;11.20;;;3.08;;
54259;SDS011;40172;53.022;7.012;2023-09-19T12:03:59;15.05;;;2.95;;
54259;SDS011;40172;53.022;7.012;2023-09-19T12:06:27;13.48;;;3.40;;
54259;SDS011;40172;53.022;7.012;2023-09-19T12:08:55;17.88;;;2.97;;
54259;SDS011;40172;53.022;7.012;2023-09-19T12:11:26;9.75;;;3.17;;
54259;SDS011;40172;53.022;7.012;2023-09-19T12:14:00;16.65;;;3.17;;
54259;SDS011;40172;53.022;7.012;2023-09-19T12:16:27;14.98;;;3.17;;
54259;SDS011;40172;53.022;7.012;2023-09-19T12:18:56;12.98;;;3.28;;
54259;SDS011;40172;53.022;7.012;2023-09-19T12:23:59;12.27;;;2.80;;
54259;SDS011;40172;53.022;7.012;2023-09-19T12:26:40;15.82;;;2.67;;
54259;SDS011;40172;53.022;7.012;2023-09-19T12:29:14;14.50;;;2.90;;
54259;SDS011;40172;53.022;7.012;2023-09-19T12:34:31;14.65;;;3.40;;
54259;SDS011;40172;53.022;7.012;2023-09-19T12:37:07;11.60;;;3.22;;
54259;SDS011;40172;53.022;7.012;2023-09-19T12:39:40;14.85;;;2.92;;
54259;SDS011;40172;53.022;7.012;2023-09-19T12:42:24;13.43;;;3.20;;
54259;SDS011;40172;53.022;7.012;2023-09-19T12:44:57;13.27;;;3.20;;
54259;SDS011;40172;53.022;7.012;2023-09-19T12:47:26;9.75;;;2.80;;
54259;SDS011;40172;53.022;7.012;2023-09-19T12:52:48;14.93;;;2.80;;
54259;SDS011;40172;53.022;7.012;2023-09-19T12:55:21;15.68;;;3.13;;
54259;SDS011;40172;53.022;7.012;2023-09-19T13:00:44;9.35;;;2.60;;
54259;SDS011;40172;53.022;7.012;2023-09-19T13:06:00;12.85;;;3.08;;
54259;SDS011;40172;53.022;7.012;2023-09-19T13:08:29;15.00;;;3.03;;
54259;SDS011;40172;53.022;7.012;2023-09-19T13:11:03;14.63;;;2.83;;
54259;SDS011;40172;53.022;7.012;2023-09-19T13:13:47;21.00;;;3.63;;
54259;SDS011;40172;53.022;7.012;2023-09-19T13:16:15;14.85;;;3.30;;
54259;SDS011;40172;53.022;7.012;2023-09-19T13:21:12;14.55;;;2.95;;
54259;SDS011;40172;53.022;7.012;2023-09-19T13:23:55;13.38;;;2.60;;
54259;SDS011;40172;53.022;7.012;2023-09-19T13:26:41;13.65;;;2.90;;
54259;SDS011;40172;53.022;7.012;2023-09-19T13:29:07;12.85;;;2.80;;
54259;SDS011;40172;53.022;7.012;2023-09-19T13:31:32;14.23;;;3.00;;
54259;SDS011;40172;53.022;7.012;2023-09-19T13:33:58;12.10;;;2.80;;
54259;SDS011;40172;53.022;7.012;2023-09-19T13:36:24;18.08;;;3.42;;
54259;SDS011;40172;53.022;7.012;2023-09-19T13:38:49;9.75;;;2.53;;
54259;SDS011;40172;53.022;7.012;2023-09-19T13:41:17;15.65;;;3.20;;
54259;SDS011;40172;53.022;7.012;2023-09-19T13:43:43;11.55;;;2.65;;
54259;SDS011;40172;53.022;7.012;2023-09-19T13:46:13;12.15;;;2.58;;
54259;SDS011;40172;53.022;7.012;2023-09-19T13:48:41;14.60;;;2.60;;
54259;SDS011;40172;53.022;7.012;2023-09-19T13:51:06;10.80;;;2.80;;
54259;SDS011;40172;53.022;7.012;2023-09-19T13:53:32;13.07;;;2.85;;
54259;SDS011;40172;53.022;7.012;2023-09-19T13:55:57;15.35;;;3.08;;
54259;SDS011;40172;53.022;7.012;2023-09-19T13:58:23;10.23;;;2.70;;
54259;SDS011;40172;53.022;7.012;2023-09-19T14:00:49;11.32;;;2.40;;
54259;SDS011;40172;53.022;7.012;2023-09-19T14:03:15;12.40;;;2.95;;
54259;SDS011;40172;53.022;7.012;2023-09-19T14:05:41;10.73;;;2.78;;
54259;SDS011;40172;53.022;7.012;2023-09-19T14:08:07;13.43;;;2.75;;
54259;SDS011;40172;53.022;7.012;2023-09-19T14:10:33;13.90;;;2.65;;
54259;SDS011;40172;53.022;7.012;2023-09-19T14:12:59;8.27;;;2.00;;
54259;SDS011;40172;53.022;7.012;2023-09-19T14:15:26;13.73;;;3.05;;
54259;SDS011;40172;53.022;7.012;2023-09-19T14:17:58;13.82;;;2.60;;
54259;SDS011;40172;53.022;7.012;2023-09-19T14:20:25;10.75;;;2.70;;
54259;SDS011;40172;53.022;7.012;2023-09-19T14:22:55;12.23;;;2.55;;
54259;SDS011;40172;53.022;7.012;2023-09-19T14:25:23;12.77;;;2.35;;
54259;SDS011;40172;53.022;7.012;2023-09-19T14:27:49;7.38;;;2.10;;
54259;SDS011;40172;53.022;7.012;2023-09-19T14:30:15;8.25;;;2.10;;
54259;SDS011;40172;53.022;7.012;2023-09-19T14:32:41;11.15;;;2.53;;
54259;SDS011;40172;53.022;7.012;2023-09-19T14:35:07;8.93;;;2.50;;
54259;SDS011;40172;53.022;7.012;2023-09-19T14:37:34;9.48;;;2.20;;
54259;SDS011;40172;53.022;7.012;2023-09-19T14:40:00;11.43;;;2.88;;
54259;SDS011;40172;53.022;7.012;2023-09-19T14:42:32;11.80;;;2.25;;
54259;SDS011;40172;53.022;7.012;2023-09-19T14:44:58;11.30;;;2.17;;
54259;SDS011;40172;53.022;7.012;2023-09-19T14:47:23;8.38;;;2.15;;
54259;SDS011;40172;53.022;7.012;2023-09-19T14:49:50;12.30;;;2.70;;
54259;SDS011;40172;53.022;7.012;2023-09-19T14:52:16;9.13;;;2.00;;
54259;SDS011;40172;53.022;7.012;2023-09-19T14:54:41;8.43;;;2.17;;
54259;SDS011;40172;53.022;7.012;2023-09-19T14:57:07;10.88;;;1.85;;
54259;SDS011;40172;53.022;7.012;2023-09-19T14:59:34;12.27;;;1.88;;
54259;SDS011;40172;53.022;7.012;2023-09-19T15:02:05;8.50;;;1.90;;
54259;SDS011;40172;53.022;7.012;2023-09-19T15:04:30;10.02;;;1.95;;
54259;SDS011;40172;53.022;7.012;2023-09-19T15:06:56;8.25;;;1.80;;
54259;SDS011;40172;53.022;7.012;2023-09-19T15:09:23;9.43;;;2.00;;
54259;SDS011;40172;53.022;7.012;2023-09-19T15:11:54;8.20;;;1.70;;
54259;SDS011;40172;53.022;7.012;2023-09-19T15:14:20;7.13;;;2.10;;
54259;SDS011;40172;53.022;7.012;2023-09-19T15:16:47;6.90;;;1.83;;
54259;SDS011;40172;53.022;7.012;2023-09-19T15:19:13;10.20;;;1.88;;
54259;SDS011;40172;53.022;7.012;2023-09-19T15:21:40;8.60;;;2.00;;
54259;SDS011;40172;53.022;7.012;2023-09-19T15:24:06;9.20;;;1.67;;
54259;SDS011;40172;53.022;7.012;2023-09-19T15:26:35;11.85;;;1.70;;
54259;SDS011;40172;53.022;7.012;2023-09-19T15:29:05;10.70;;;1.63;;
54259;SDS011;40172;53.022;7.012;2023-09-19T15:31:31;7.95;;;1.80;;
54259;SDS011;40172;53.022;7.012;2023-09-19T15:33:57;7.97;;;2.13;;
54259;SDS011;40172;53.022;7.012;2023-09-19T15:36:23;7.82;;;1.83;;
54259;SDS011;40172;53.022;7.012;2023-09-19T15:41:29;10.02;;;2.00;;
54259;SDS011;40172;53.022;7.012;2023-09-19T15:43:56;7.22;;;1.55;;
54259;SDS011;40172;53.022;7.012;2023-09-19T15:46:24;10.45;;;1.98;;
54259;SDS011;40172;53.022;7.012;2023-09-19T15:48:52;9.43;;;1.80;;
54259;SDS011;40172;53.022;7.012;2023-09-19T15:51:22;7.00;;;1.60;;
54259;SDS011;40172;53.022;7.012;2023-09-19T15:53:48;10.27;;;1.80;;
54259;SDS011;40172;53.022;7.012;2023-09-19T15:56:16;6.95;;;2.00;;
54259;SDS011;40172;53.022;7.012;2023-09-19T15:58:46;8.57;;;1.80;;
54259;SDS011;40172;53.022;7.012;2023-09-19T16:01:14;6.38;;;1.70;;